FFT2281 KDEN-KSAN
Flight info
| Callsign | FFT2281 |
|---|---|
| Flight time | 2h 3m |
| Altitude | 36000 |
| Route | BAYLR6 TEHRU PLNDL Q86 TTRUE LUCKI1 |
| Aircraft | A320/M-SDE3FGHIRWY/LB1 |
Departure
| Time | 2026-04-23 15:35 |
|---|---|
| Airport | Denver International Airport (KDEN) |
Arrival
| Time | 2026-04-23 17:38 |
|---|---|
| Airport | San Diego International Airport (KSAN) |
| Time | Latitude | Longitude | Altitude | Speed | Heading |
|---|---|---|---|---|---|
| 2026-04-23 15:12 | 39.85366 | -104.66778 | 5384 ft | 0 kts | 360° |
| 2026-04-23 15:25 | 39.85365 | -104.66778 | 5380 ft | 1 kts | 0° |
| 2026-04-23 15:25 | 39.85341 | -104.66778 | 5383 ft | 4 kts | 359° |
| 2026-04-23 15:25 | 39.85315 | -104.66777 | 5382 ft | 4 kts | 359° |
| 2026-04-23 15:25 | 39.85289 | -104.66771 | 5383 ft | 4 kts | 328° |
| 2026-04-23 15:26 | 39.85274 | -104.66748 | 5383 ft | 4 kts | 276° |
| 2026-04-23 15:26 | 39.85273 | -104.66742 | 5382 ft | 0 kts | 270° |
| 2026-04-23 15:28 | 39.85273 | -104.66743 | 5382 ft | 0 kts | 270° |
| 2026-04-23 15:28 | 39.85273 | -104.66782 | 5383 ft | 9 kts | 270° |
| 2026-04-23 15:29 | 39.85274 | -104.66898 | 5383 ft | 16 kts | 271° |
| 2026-04-23 15:29 | 39.85276 | -104.67045 | 5383 ft | 15 kts | 270° |
| 2026-04-23 15:29 | 39.85276 | -104.67190 | 5383 ft | 15 kts | 270° |
| 2026-04-23 15:29 | 39.85277 | -104.67336 | 5383 ft | 18 kts | 270° |
| 2026-04-23 15:30 | 39.85279 | -104.67498 | 5383 ft | 18 kts | 271° |
| 2026-04-23 15:30 | 39.85280 | -104.67649 | 5383 ft | 16 kts | 271° |
| 2026-04-23 15:30 | 39.85282 | -104.67797 | 5383 ft | 17 kts | 271° |
| 2026-04-23 15:30 | 39.85281 | -104.67944 | 5383 ft | 16 kts | 270° |
| 2026-04-23 15:31 | 39.85282 | -104.68092 | 5383 ft | 17 kts | 271° |
| 2026-04-23 15:31 | 39.85309 | -104.68227 | 5383 ft | 16 kts | 274° |
| 2026-04-23 15:31 | 39.85303 | -104.68375 | 5381 ft | 15 kts | 246° |
| 2026-04-23 15:31 | 39.85213 | -104.68428 | 5377 ft | 13 kts | 236° |
| 2026-04-23 15:32 | 39.85206 | -104.68554 | 5377 ft | 16 kts | 268° |
| 2026-04-23 15:32 | 39.85201 | -104.68732 | 5368 ft | 23 kts | 269° |
| 2026-04-23 15:32 | 39.85198 | -104.68959 | 5358 ft | 26 kts | 268° |
| 2026-04-23 15:32 | 39.85196 | -104.69204 | 5349 ft | 26 kts | 272° |
| 2026-04-23 15:33 | 39.85201 | -104.69417 | 5339 ft | 14 kts | 271° |
| 2026-04-23 15:33 | 39.85202 | -104.69493 | 5340 ft | 5 kts | 270° |
| 2026-04-23 15:33 | 39.85202 | -104.69546 | 5340 ft | 8 kts | 270° |
| 2026-04-23 15:33 | 39.85211 | -104.69644 | 5337 ft | 12 kts | 304° |
| 2026-04-23 15:34 | 39.85332 | -104.69658 | 5337 ft | 38 kts | 1° |
| 2026-04-23 15:34 | 39.85871 | -104.69653 | 5338 ft | 115 kts | 2° |
| 2026-04-23 15:34 | 39.86899 | -104.69642 | 5339 ft | 178 kts | 0° |
| 2026-04-23 15:34 | 39.88225 | -104.69637 | 5913 ft | 196 kts | 356° |
| 2026-04-23 15:35 | 39.89502 | -104.70078 | 6834 ft | 188 kts | 317° |
| 2026-04-23 15:35 | 39.90069 | -104.71473 | 7604 ft | 174 kts | 269° |
| 2026-04-23 15:35 | 39.89626 | -104.72925 | 8077 ft | 182 kts | 229° |
| 2026-04-23 15:35 | 39.88678 | -104.74152 | 8304 ft | 203 kts | 230° |
| 2026-04-23 15:36 | 39.87666 | -104.75584 | 8527 ft | 226 kts | 231° |
| 2026-04-23 15:36 | 39.86567 | -104.77194 | 8789 ft | 250 kts | 231° |
| 2026-04-23 15:36 | 39.85364 | -104.78968 | 9123 ft | 271 kts | 231° |
| 2026-04-23 15:36 | 39.84094 | -104.80834 | 9752 ft | 279 kts | 231° |
| 2026-04-23 15:37 | 39.82797 | -104.82735 | 9947 ft | 281 kts | 231° |
| 2026-04-23 15:37 | 39.81453 | -104.84700 | 9983 ft | 304 kts | 231° |
| 2026-04-23 15:37 | 39.80045 | -104.86753 | 9985 ft | 311 kts | 230° |
| 2026-04-23 15:37 | 39.78630 | -104.88811 | 9982 ft | 309 kts | 230° |
| 2026-04-23 15:38 | 39.77391 | -104.91136 | 10060 ft | 317 kts | 249° |
| 2026-04-23 15:38 | 39.76640 | -104.93831 | 10783 ft | 319 kts | 254° |
| 2026-04-23 15:38 | 39.76013 | -104.96603 | 11568 ft | 320 kts | 256° |
| 2026-04-23 15:38 | 39.75430 | -104.99436 | 12369 ft | 320 kts | 256° |
| 2026-04-23 15:39 | 39.74857 | -105.02237 | 13173 ft | 322 kts | 254° |
| 2026-04-23 15:39 | 39.74072 | -105.04968 | 13764 ft | 324 kts | 250° |
| 2026-04-23 15:39 | 39.73219 | -105.07674 | 13991 ft | 324 kts | 249° |
| 2026-04-23 15:39 | 39.72342 | -105.10378 | 14624 ft | 325 kts | 248° |
| 2026-04-23 15:40 | 39.71455 | -105.13082 | 15295 ft | 326 kts | 248° |
| 2026-04-23 15:40 | 39.70560 | -105.15799 | 15952 ft | 327 kts | 248° |
| 2026-04-23 15:40 | 39.69673 | -105.18484 | 16570 ft | 329 kts | 247° |
| 2026-04-23 15:40 | 39.68754 | -105.21260 | 17219 ft | 331 kts | 247° |
| 2026-04-23 15:41 | 39.67856 | -105.23981 | 17839 ft | 333 kts | 247° |
| 2026-04-23 15:41 | 39.66946 | -105.26747 | 18396 ft | 335 kts | 247° |
| 2026-04-23 15:41 | 39.66028 | -105.29526 | 18926 ft | 337 kts | 246° |
| 2026-04-23 15:41 | 39.65096 | -105.32345 | 19343 ft | 342 kts | 246° |
| 2026-04-23 15:42 | 39.64156 | -105.35194 | 19827 ft | 344 kts | 246° |
| 2026-04-23 15:42 | 39.63212 | -105.38055 | 20315 ft | 346 kts | 246° |
| 2026-04-23 15:42 | 39.62261 | -105.40937 | 20801 ft | 348 kts | 246° |
| 2026-04-23 15:42 | 39.61305 | -105.43834 | 21297 ft | 351 kts | 246° |
| 2026-04-23 15:43 | 39.60341 | -105.46749 | 21789 ft | 353 kts | 245° |
| 2026-04-23 15:43 | 39.59373 | -105.49681 | 22285 ft | 355 kts | 245° |
| 2026-04-23 15:43 | 39.58398 | -105.52628 | 22776 ft | 357 kts | 245° |
| 2026-04-23 15:43 | 39.57410 | -105.55594 | 23242 ft | 358 kts | 245° |
| 2026-04-23 15:44 | 39.56429 | -105.58532 | 23611 ft | 360 kts | 245° |
| 2026-04-23 15:44 | 39.55418 | -105.61559 | 23997 ft | 362 kts | 245° |
| 2026-04-23 15:44 | 39.54470 | -105.64593 | 24470 ft | 365 kts | 249° |
| 2026-04-23 15:44 | 39.53604 | -105.67647 | 24824 ft | 367 kts | 251° |
| 2026-04-23 15:45 | 39.52763 | -105.70783 | 25187 ft | 370 kts | 251° |
| 2026-04-23 15:45 | 39.51929 | -105.73947 | 25531 ft | 372 kts | 251° |
| 2026-04-23 15:45 | 39.51085 | -105.77123 | 25870 ft | 374 kts | 251° |
| 2026-04-23 15:45 | 39.50225 | -105.80305 | 26229 ft | 376 kts | 251° |
| 2026-04-23 15:46 | 39.49344 | -105.83505 | 26571 ft | 378 kts | 251° |
| 2026-04-23 15:46 | 39.48451 | -105.86712 | 26865 ft | 380 kts | 250° |
| 2026-04-23 15:46 | 39.47549 | -105.89932 | 27211 ft | 382 kts | 250° |
| 2026-04-23 15:46 | 39.46638 | -105.93173 | 27578 ft | 384 kts | 250° |
| 2026-04-23 15:47 | 39.45725 | -105.96427 | 27893 ft | 386 kts | 250° |
| 2026-04-23 15:47 | 39.44807 | -105.99705 | 28256 ft | 388 kts | 251° |
| 2026-04-23 15:47 | 39.43892 | -106.02969 | 28515 ft | 392 kts | 251° |
| 2026-04-23 15:47 | 39.42947 | -106.06340 | 28797 ft | 395 kts | 251° |
| 2026-04-23 15:48 | 39.42006 | -106.09690 | 29095 ft | 397 kts | 251° |
| 2026-04-23 15:48 | 39.41071 | -106.13008 | 29378 ft | 399 kts | 251° |
| 2026-04-23 15:48 | 39.40120 | -106.16388 | 29688 ft | 401 kts | 251° |
| 2026-04-23 15:48 | 39.39165 | -106.19777 | 29987 ft | 402 kts | 251° |
| 2026-04-23 15:49 | 39.38206 | -106.23180 | 30234 ft | 404 kts | 251° |
| 2026-04-23 15:49 | 39.37242 | -106.26596 | 30618 ft | 406 kts | 251° |
| 2026-04-23 15:49 | 39.36273 | -106.30028 | 30862 ft | 408 kts | 251° |
| 2026-04-23 15:49 | 39.35296 | -106.33480 | 31148 ft | 408 kts | 251° |
| 2026-04-23 15:50 | 39.34319 | -106.36913 | 31486 ft | 407 kts | 251° |
| 2026-04-23 15:50 | 39.33345 | -106.40340 | 31795 ft | 406 kts | 251° |
| 2026-04-23 15:50 | 39.32369 | -106.43764 | 32097 ft | 405 kts | 251° |
| 2026-04-23 15:50 | 39.31395 | -106.47176 | 32384 ft | 405 kts | 251° |
| 2026-04-23 15:51 | 39.30423 | -106.50587 | 32675 ft | 404 kts | 251° |
| 2026-04-23 15:51 | 39.29452 | -106.53990 | 32980 ft | 404 kts | 251° |
| 2026-04-23 15:51 | 39.28483 | -106.57392 | 33296 ft | 403 kts | 251° |
| 2026-04-23 15:51 | 39.27511 | -106.60790 | 33604 ft | 403 kts | 251° |
| 2026-04-23 15:52 | 39.26538 | -106.64169 | 33949 ft | 400 kts | 251° |
| 2026-04-23 15:52 | 39.25573 | -106.67517 | 34347 ft | 396 kts | 251° |
| 2026-04-23 15:52 | 39.24564 | -106.70817 | 34646 ft | 397 kts | 247° |
| 2026-04-23 15:52 | 39.23160 | -106.73893 | 34900 ft | 401 kts | 237° |
| 2026-04-23 15:53 | 39.21462 | -106.76707 | 35103 ft | 403 kts | 236° |
| 2026-04-23 15:53 | 39.19700 | -106.79584 | 35300 ft | 404 kts | 236° |
| 2026-04-23 15:53 | 39.17978 | -106.82391 | 35504 ft | 404 kts | 236° |
| 2026-04-23 15:53 | 39.16228 | -106.85244 | 35705 ft | 405 kts | 235° |
| 2026-04-23 15:54 | 39.14482 | -106.88097 | 35648 ft | 406 kts | 235° |
| 2026-04-23 15:54 | 39.12738 | -106.90947 | 35794 ft | 405 kts | 235° |
| 2026-04-23 15:54 | 39.10995 | -106.93793 | 35809 ft | 404 kts | 235° |
| 2026-04-23 15:55 | 39.07507 | -106.99475 | 35811 ft | 405 kts | 235° |
| 2026-04-23 15:55 | 39.04007 | -107.05161 | 35835 ft | 405 kts | 236° |
| 2026-04-23 15:56 | 39.00534 | -107.10792 | 35829 ft | 404 kts | 236° |
| 2026-04-23 15:56 | 38.97039 | -107.16454 | 35795 ft | 404 kts | 236° |
| 2026-04-23 15:57 | 38.93548 | -107.22105 | 35837 ft | 402 kts | 236° |
| 2026-04-23 15:57 | 38.90071 | -107.27728 | 35853 ft | 402 kts | 236° |
| 2026-04-23 15:58 | 38.86591 | -107.33336 | 35867 ft | 401 kts | 236° |
| 2026-04-23 15:58 | 38.83108 | -107.38934 | 35854 ft | 404 kts | 236° |
| 2026-04-23 15:59 | 38.79555 | -107.44654 | 35867 ft | 415 kts | 236° |
| 2026-04-23 15:59 | 38.75924 | -107.50484 | 35868 ft | 421 kts | 236° |
| 2026-04-23 16:00 | 38.72252 | -107.56351 | 35869 ft | 422 kts | 236° |
| 2026-04-23 16:00 | 38.68598 | -107.62183 | 35886 ft | 422 kts | 236° |
| 2026-04-23 16:01 | 38.64939 | -107.68016 | 35886 ft | 418 kts | 237° |
| 2026-04-23 16:01 | 38.61307 | -107.73802 | 35891 ft | 417 kts | 236° |
| 2026-04-23 16:02 | 38.57678 | -107.79571 | 35887 ft | 416 kts | 237° |
| 2026-04-23 16:02 | 38.55867 | -107.82449 | 35781 ft | 414 kts | 237° |
| 2026-04-23 16:02 | 38.54070 | -107.85298 | 35495 ft | 411 kts | 237° |
| 2026-04-23 16:02 | 38.52276 | -107.88137 | 35213 ft | 409 kts | 237° |
| 2026-04-23 16:03 | 38.50496 | -107.90951 | 34936 ft | 406 kts | 237° |
| 2026-04-23 16:03 | 38.48722 | -107.93751 | 34653 ft | 404 kts | 237° |
| 2026-04-23 16:03 | 38.46958 | -107.96532 | 34387 ft | 402 kts | 237° |
| 2026-04-23 16:03 | 38.45203 | -107.99301 | 34114 ft | 400 kts | 237° |
| 2026-04-23 16:04 | 38.43454 | -108.02060 | 33788 ft | 399 kts | 237° |
| 2026-04-23 16:04 | 38.41712 | -108.04809 | 33454 ft | 399 kts | 237° |
| 2026-04-23 16:04 | 38.39966 | -108.07570 | 33066 ft | 400 kts | 237° |
| 2026-04-23 16:04 | 38.38217 | -108.10334 | 32643 ft | 401 kts | 237° |
| 2026-04-23 16:05 | 38.37055 | -108.12162 | 32344 ft | 398 kts | 238° |
| 2026-04-23 16:05 | 38.34736 | -108.15790 | 31815 ft | 392 kts | 237° |
| 2026-04-23 16:05 | 38.33038 | -108.18442 | 31541 ft | 391 kts | 237° |
| 2026-04-23 16:06 | 38.29602 | -108.23827 | 31853 ft | 390 kts | 238° |
| 2026-04-23 16:06 | 38.27895 | -108.26511 | 32119 ft | 391 kts | 238° |
| 2026-04-23 16:06 | 38.26182 | -108.29197 | 32228 ft | 391 kts | 238° |
| 2026-04-23 16:06 | 38.24462 | -108.31891 | 32062 ft | 391 kts | 238° |
| 2026-04-23 16:07 | 38.22742 | -108.34574 | 31767 ft | 391 kts | 237° |
| 2026-04-23 16:07 | 38.21039 | -108.37221 | 31566 ft | 391 kts | 237° |
| 2026-04-23 16:07 | 38.19317 | -108.39900 | 31630 ft | 391 kts | 237° |
| 2026-04-23 16:07 | 38.17598 | -108.42581 | 31916 ft | 390 kts | 238° |
| 2026-04-23 16:08 | 38.15874 | -108.45275 | 31723 ft | 394 kts | 238° |
| 2026-04-23 16:08 | 38.14143 | -108.47977 | 31352 ft | 394 kts | 237° |
| 2026-04-23 16:08 | 38.12403 | -108.50683 | 30988 ft | 396 kts | 237° |
| 2026-04-23 16:08 | 38.11242 | -108.52484 | 30769 ft | 397 kts | 237° |
| 2026-04-23 16:09 | 38.09479 | -108.55211 | 30850 ft | 400 kts | 237° |
| 2026-04-23 16:09 | 38.07714 | -108.57938 | 31141 ft | 398 kts | 238° |
| 2026-04-23 16:09 | 38.05971 | -108.60627 | 31725 ft | 391 kts | 238° |
| 2026-04-23 16:09 | 38.04257 | -108.63269 | 32205 ft | 386 kts | 238° |
| 2026-04-23 16:10 | 38.02561 | -108.65889 | 32577 ft | 383 kts | 238° |
| 2026-04-23 16:10 | 38.00876 | -108.68498 | 32901 ft | 382 kts | 239° |
| 2026-04-23 16:10 | 37.99198 | -108.71099 | 33218 ft | 381 kts | 239° |
| 2026-04-23 16:10 | 37.97522 | -108.73688 | 33534 ft | 379 kts | 239° |
| 2026-04-23 16:11 | 37.95849 | -108.76267 | 33843 ft | 378 kts | 239° |
| 2026-04-23 16:11 | 37.94178 | -108.78838 | 34086 ft | 377 kts | 239° |
| 2026-04-23 16:11 | 37.92513 | -108.81398 | 34259 ft | 376 kts | 239° |
| 2026-04-23 16:11 | 37.90845 | -108.83963 | 34400 ft | 378 kts | 239° |
| 2026-04-23 16:12 | 37.89171 | -108.86535 | 34576 ft | 379 kts | 238° |
| 2026-04-23 16:12 | 37.87493 | -108.89117 | 34753 ft | 380 kts | 238° |
| 2026-04-23 16:12 | 37.85809 | -108.91709 | 34932 ft | 382 kts | 238° |
| 2026-04-23 16:12 | 37.84120 | -108.94307 | 35111 ft | 383 kts | 238° |
| 2026-04-23 16:13 | 37.82419 | -108.96916 | 35276 ft | 385 kts | 238° |
| 2026-04-23 16:13 | 37.78997 | -109.02146 | 35597 ft | 387 kts | 238° |
| 2026-04-23 16:13 | 37.77279 | -109.04766 | 35740 ft | 387 kts | 238° |
| 2026-04-23 16:14 | 37.75558 | -109.07385 | 35911 ft | 387 kts | 238° |
| 2026-04-23 16:14 | 37.73858 | -109.09975 | 35964 ft | 387 kts | 238° |
| 2026-04-23 16:14 | 37.70422 | -109.15209 | 35985 ft | 387 kts | 238° |
| 2026-04-23 16:15 | 37.66988 | -109.20449 | 36008 ft | 387 kts | 238° |
| 2026-04-23 16:15 | 37.63548 | -109.25674 | 36028 ft | 387 kts | 238° |
| 2026-04-23 16:16 | 37.60102 | -109.30896 | 36051 ft | 387 kts | 238° |
| 2026-04-23 16:16 | 37.56656 | -109.36120 | 36072 ft | 387 kts | 238° |
| 2026-04-23 16:17 | 37.53201 | -109.41339 | 36081 ft | 388 kts | 238° |
| 2026-04-23 16:17 | 37.49744 | -109.46555 | 36069 ft | 388 kts | 238° |
| 2026-04-23 16:18 | 37.46306 | -109.51730 | 36018 ft | 388 kts | 238° |
| 2026-04-23 16:18 | 37.42843 | -109.56937 | 36021 ft | 388 kts | 238° |
| 2026-04-23 16:19 | 37.39380 | -109.62147 | 36007 ft | 388 kts | 238° |
| 2026-04-23 16:19 | 37.35918 | -109.67348 | 35986 ft | 388 kts | 238° |
| 2026-04-23 16:20 | 37.32446 | -109.72539 | 35946 ft | 388 kts | 238° |
| 2026-04-23 16:20 | 37.28973 | -109.77731 | 35944 ft | 388 kts | 238° |
| 2026-04-23 16:21 | 37.25502 | -109.82915 | 35946 ft | 387 kts | 238° |
| 2026-04-23 16:21 | 37.22049 | -109.88057 | 35947 ft | 387 kts | 238° |
| 2026-04-23 16:22 | 37.18579 | -109.93230 | 35948 ft | 387 kts | 238° |
| 2026-04-23 16:22 | 37.15112 | -109.98379 | 35904 ft | 387 kts | 238° |
| 2026-04-23 16:23 | 37.11630 | -110.03536 | 35927 ft | 387 kts | 238° |
| 2026-04-23 16:23 | 37.08152 | -110.08689 | 35924 ft | 387 kts | 238° |
| 2026-04-23 16:24 | 37.04665 | -110.13845 | 35907 ft | 388 kts | 238° |
| 2026-04-23 16:24 | 37.01179 | -110.18995 | 35913 ft | 388 kts | 238° |
| 2026-04-23 16:25 | 36.97707 | -110.24109 | 35917 ft | 388 kts | 238° |
| 2026-04-23 16:25 | 36.94211 | -110.29259 | 35923 ft | 389 kts | 238° |
| 2026-04-23 16:26 | 36.90708 | -110.34413 | 35933 ft | 389 kts | 237° |
| 2026-04-23 16:26 | 36.87197 | -110.39565 | 35941 ft | 389 kts | 237° |
| 2026-04-23 16:27 | 36.83686 | -110.44705 | 35901 ft | 389 kts | 237° |
| 2026-04-23 16:27 | 36.80168 | -110.49837 | 35911 ft | 390 kts | 237° |
| 2026-04-23 16:28 | 36.76670 | -110.54940 | 35921 ft | 389 kts | 237° |
| 2026-04-23 16:28 | 36.73149 | -110.60084 | 35927 ft | 390 kts | 237° |
| 2026-04-23 16:29 | 36.69625 | -110.65230 | 35953 ft | 390 kts | 237° |
| 2026-04-23 16:29 | 36.66097 | -110.70363 | 35953 ft | 390 kts | 237° |
| 2026-04-23 16:30 | 36.62565 | -110.75489 | 35957 ft | 390 kts | 237° |
| 2026-04-23 16:30 | 36.59028 | -110.80614 | 35958 ft | 390 kts | 237° |
| 2026-04-23 16:31 | 36.55516 | -110.85694 | 35941 ft | 390 kts | 237° |
| 2026-04-23 16:31 | 36.51981 | -110.90802 | 35953 ft | 390 kts | 237° |
| 2026-04-23 16:32 | 36.48438 | -110.95909 | 35957 ft | 389 kts | 237° |
| 2026-04-23 16:32 | 36.44902 | -111.01002 | 35960 ft | 389 kts | 237° |
| 2026-04-23 16:33 | 36.41357 | -111.06090 | 35962 ft | 389 kts | 237° |
| 2026-04-23 16:33 | 36.37818 | -111.11172 | 35960 ft | 389 kts | 237° |
| 2026-04-23 16:34 | 36.34277 | -111.16252 | 35953 ft | 389 kts | 237° |
| 2026-04-23 16:34 | 36.30760 | -111.21288 | 35954 ft | 389 kts | 237° |
| 2026-04-23 16:35 | 36.27223 | -111.26363 | 35956 ft | 389 kts | 237° |
| 2026-04-23 16:35 | 36.23674 | -111.31427 | 35954 ft | 389 kts | 236° |
| 2026-04-23 16:36 | 36.20116 | -111.36493 | 35940 ft | 390 kts | 236° |
| 2026-04-23 16:36 | 36.16551 | -111.41565 | 35947 ft | 390 kts | 236° |
| 2026-04-23 16:37 | 36.12983 | -111.46636 | 35953 ft | 390 kts | 236° |
| 2026-04-23 16:37 | 36.09411 | -111.51701 | 35958 ft | 390 kts | 236° |
| 2026-04-23 16:38 | 36.05839 | -111.56758 | 35964 ft | 390 kts | 236° |
| 2026-04-23 16:38 | 36.02267 | -111.61805 | 35964 ft | 390 kts | 236° |
| 2026-04-23 16:39 | 35.98694 | -111.66853 | 35959 ft | 390 kts | 236° |
| 2026-04-23 16:39 | 35.95120 | -111.71897 | 35969 ft | 390 kts | 236° |
| 2026-04-23 16:40 | 35.91543 | -111.76926 | 35942 ft | 390 kts | 236° |
| 2026-04-23 16:40 | 35.87991 | -111.81923 | 35982 ft | 390 kts | 236° |
| 2026-04-23 16:41 | 35.84421 | -111.86955 | 35932 ft | 389 kts | 238° |
| 2026-04-23 16:41 | 35.81646 | -111.92558 | 35941 ft | 382 kts | 246° |
| 2026-04-23 16:42 | 35.79071 | -111.98286 | 35958 ft | 382 kts | 246° |
| 2026-04-23 16:42 | 35.76496 | -112.04002 | 35963 ft | 382 kts | 246° |
| 2026-04-23 16:43 | 35.74429 | -112.08559 | 35974 ft | 382 kts | 246° |
| 2026-04-23 16:43 | 35.72847 | -112.12035 | 35976 ft | 383 kts | 246° |
| 2026-04-23 16:44 | 35.70201 | -112.17719 | 35966 ft | 383 kts | 245° |
| 2026-04-23 16:44 | 35.67545 | -112.23346 | 35972 ft | 383 kts | 245° |
| 2026-04-23 16:45 | 35.64860 | -112.29012 | 35978 ft | 383 kts | 245° |
| 2026-04-23 16:45 | 35.62185 | -112.34675 | 35976 ft | 383 kts | 245° |
| 2026-04-23 16:46 | 35.59512 | -112.40352 | 35988 ft | 383 kts | 245° |
| 2026-04-23 16:46 | 35.56882 | -112.45999 | 35973 ft | 383 kts | 245° |
| 2026-04-23 16:47 | 35.54244 | -112.51685 | 35964 ft | 383 kts | 245° |
| 2026-04-23 16:47 | 35.51597 | -112.57369 | 35958 ft | 384 kts | 245° |
| 2026-04-23 16:48 | 35.48936 | -112.63055 | 35966 ft | 384 kts | 245° |
| 2026-04-23 16:48 | 35.46269 | -112.68730 | 35969 ft | 384 kts | 245° |
| 2026-04-23 16:49 | 35.43606 | -112.74399 | 35966 ft | 384 kts | 245° |
| 2026-04-23 16:49 | 35.40942 | -112.80072 | 35952 ft | 384 kts | 245° |
| 2026-04-23 16:50 | 35.38277 | -112.85737 | 35949 ft | 384 kts | 245° |
| 2026-04-23 16:50 | 35.35597 | -112.91406 | 35946 ft | 384 kts | 244° |
| 2026-04-23 16:51 | 35.32925 | -112.97035 | 35948 ft | 385 kts | 244° |
| 2026-04-23 16:51 | 35.30239 | -113.02701 | 35945 ft | 385 kts | 244° |
| 2026-04-23 16:52 | 35.27552 | -113.08370 | 35946 ft | 385 kts | 244° |
| 2026-04-23 16:52 | 35.24864 | -113.14033 | 35923 ft | 385 kts | 244° |
| 2026-04-23 16:53 | 35.22173 | -113.19686 | 35934 ft | 385 kts | 244° |
| 2026-04-23 16:53 | 35.19483 | -113.25345 | 35926 ft | 384 kts | 244° |
| 2026-04-23 16:54 | 35.16806 | -113.30960 | 35931 ft | 385 kts | 244° |
| 2026-04-23 16:54 | 35.14104 | -113.36606 | 35926 ft | 385 kts | 244° |
| 2026-04-23 16:55 | 35.11399 | -113.42249 | 35927 ft | 384 kts | 244° |
| 2026-04-23 16:55 | 35.08708 | -113.47854 | 35938 ft | 382 kts | 244° |
| 2026-04-23 16:56 | 35.06021 | -113.53439 | 35941 ft | 381 kts | 244° |
| 2026-04-23 16:56 | 35.03339 | -113.59009 | 35943 ft | 380 kts | 244° |
| 2026-04-23 16:57 | 35.00661 | -113.64575 | 35944 ft | 380 kts | 244° |
| 2026-04-23 16:57 | 34.97976 | -113.70128 | 35941 ft | 380 kts | 244° |
| 2026-04-23 16:58 | 34.95296 | -113.75680 | 35941 ft | 380 kts | 244° |
| 2026-04-23 16:58 | 34.92611 | -113.81231 | 35935 ft | 380 kts | 244° |
| 2026-04-23 16:59 | 34.89913 | -113.86783 | 35936 ft | 381 kts | 244° |
| 2026-04-23 16:59 | 34.87223 | -113.92305 | 35937 ft | 381 kts | 244° |
| 2026-04-23 17:00 | 34.84457 | -113.97864 | 35945 ft | 385 kts | 243° |
| 2026-04-23 17:00 | 34.81604 | -114.03356 | 35944 ft | 383 kts | 242° |
| 2026-04-23 17:01 | 34.79212 | -114.07938 | 35937 ft | 382 kts | 242° |
| 2026-04-23 17:01 | 34.76393 | -114.13360 | 35968 ft | 381 kts | 242° |
| 2026-04-23 17:02 | 34.73570 | -114.18814 | 35983 ft | 381 kts | 242° |
| 2026-04-23 17:02 | 34.70754 | -114.24252 | 35995 ft | 379 kts | 243° |
| 2026-04-23 17:03 | 34.67946 | -114.29662 | 36021 ft | 378 kts | 243° |
| 2026-04-23 17:03 | 34.65146 | -114.35056 | 36030 ft | 376 kts | 243° |
| 2026-04-23 17:04 | 34.62098 | -114.40251 | 35996 ft | 382 kts | 235° |
| 2026-04-23 17:04 | 34.58591 | -114.45102 | 35996 ft | 382 kts | 235° |
| 2026-04-23 17:05 | 34.56845 | -114.47512 | 35769 ft | 377 kts | 235° |
| 2026-04-23 17:05 | 34.55112 | -114.49900 | 35069 ft | 376 kts | 235° |
| 2026-04-23 17:05 | 34.53383 | -114.52289 | 34268 ft | 378 kts | 235° |
| 2026-04-23 17:05 | 34.51662 | -114.54666 | 33369 ft | 382 kts | 235° |
| 2026-04-23 17:06 | 34.49876 | -114.57130 | 32460 ft | 385 kts | 235° |
| 2026-04-23 17:06 | 34.48124 | -114.59547 | 32115 ft | 388 kts | 235° |
| 2026-04-23 17:06 | 34.46332 | -114.62020 | 31953 ft | 391 kts | 234° |
| 2026-04-23 17:06 | 34.44528 | -114.64505 | 31982 ft | 393 kts | 234° |
| 2026-04-23 17:07 | 34.40905 | -114.69489 | 31978 ft | 394 kts | 234° |
| 2026-04-23 17:07 | 34.37275 | -114.74461 | 31958 ft | 394 kts | 234° |
| 2026-04-23 17:08 | 34.33650 | -114.79421 | 31993 ft | 393 kts | 234° |
| 2026-04-23 17:08 | 34.30036 | -114.84370 | 31998 ft | 392 kts | 234° |
| 2026-04-23 17:09 | 34.26424 | -114.89321 | 31994 ft | 392 kts | 234° |
| 2026-04-23 17:09 | 34.22800 | -114.94264 | 31993 ft | 392 kts | 234° |
| 2026-04-23 17:10 | 34.19202 | -114.99157 | 31994 ft | 392 kts | 234° |
| 2026-04-23 17:10 | 34.15543 | -115.04122 | 32008 ft | 394 kts | 234° |
| 2026-04-23 17:11 | 34.11927 | -115.09020 | 31567 ft | 391 kts | 234° |
| 2026-04-23 17:11 | 34.10112 | -115.11480 | 30607 ft | 394 kts | 234° |
| 2026-04-23 17:11 | 34.08285 | -115.13964 | 29502 ft | 399 kts | 233° |
| 2026-04-23 17:12 | 34.06427 | -115.16495 | 28511 ft | 405 kts | 233° |
| 2026-04-23 17:12 | 34.04544 | -115.19057 | 28154 ft | 411 kts | 233° |
| 2026-04-23 17:12 | 34.02635 | -115.21641 | 27985 ft | 414 kts | 232° |
| 2026-04-23 17:12 | 34.00715 | -115.24236 | 28015 ft | 416 kts | 232° |
| 2026-04-23 17:13 | 33.96860 | -115.29440 | 28023 ft | 416 kts | 233° |
| 2026-04-23 17:13 | 33.93009 | -115.34656 | 28021 ft | 416 kts | 232° |
| 2026-04-23 17:14 | 33.89181 | -115.39837 | 28029 ft | 417 kts | 232° |
| 2026-04-23 17:14 | 33.85316 | -115.45053 | 28030 ft | 417 kts | 232° |
| 2026-04-23 17:15 | 33.81460 | -115.50265 | 28028 ft | 417 kts | 232° |
| 2026-04-23 17:15 | 33.77595 | -115.55478 | 28036 ft | 417 kts | 232° |
| 2026-04-23 17:16 | 33.73726 | -115.60677 | 28027 ft | 417 kts | 232° |
| 2026-04-23 17:16 | 33.69857 | -115.65873 | 28009 ft | 417 kts | 232° |
| 2026-04-23 17:17 | 33.65958 | -115.71047 | 28035 ft | 418 kts | 231° |
| 2026-04-23 17:17 | 33.64006 | -115.73615 | 27544 ft | 414 kts | 231° |
| 2026-04-23 17:17 | 33.62078 | -115.76200 | 26313 ft | 417 kts | 236° |
| 2026-04-23 17:18 | 33.58726 | -115.82001 | 25254 ft | 430 kts | 238° |
| 2026-04-23 17:18 | 33.57036 | -115.84923 | 25079 ft | 434 kts | 238° |
| 2026-04-23 17:18 | 33.55310 | -115.87895 | 25007 ft | 435 kts | 238° |
| 2026-04-23 17:19 | 33.53578 | -115.90874 | 25050 ft | 436 kts | 238° |
| 2026-04-23 17:19 | 33.51845 | -115.93857 | 25050 ft | 436 kts | 238° |
| 2026-04-23 17:19 | 33.50113 | -115.96835 | 25044 ft | 437 kts | 238° |
| 2026-04-23 17:19 | 33.48369 | -115.99835 | 25044 ft | 437 kts | 238° |
| 2026-04-23 17:20 | 33.46641 | -116.02815 | 24695 ft | 433 kts | 238° |
| 2026-04-23 17:20 | 33.43953 | -116.07446 | 24258 ft | 406 kts | 238° |
| 2026-04-23 17:21 | 33.40838 | -116.12792 | 23525 ft | 384 kts | 239° |
| 2026-04-23 17:21 | 33.39310 | -116.15426 | 22574 ft | 387 kts | 239° |
| 2026-04-23 17:21 | 33.36231 | -116.20735 | 20772 ft | 391 kts | 239° |
| 2026-04-23 17:22 | 33.34640 | -116.23394 | 19990 ft | 396 kts | 234° |
| 2026-04-23 17:22 | 33.30042 | -116.27165 | 18748 ft | 402 kts | 211° |
| 2026-04-23 17:23 | 33.25209 | -116.29946 | 18510 ft | 370 kts | 212° |
| 2026-04-23 17:23 | 33.22942 | -116.31278 | 18377 ft | 357 kts | 212° |
| 2026-04-23 17:23 | 33.18595 | -116.33849 | 17567 ft | 347 kts | 212° |
| 2026-04-23 17:24 | 33.16437 | -116.35123 | 17100 ft | 344 kts | 212° |
| 2026-04-23 17:24 | 33.14316 | -116.36369 | 16880 ft | 336 kts | 212° |
| 2026-04-23 17:24 | 33.10164 | -116.38790 | 16084 ft | 329 kts | 212° |
| 2026-04-23 17:25 | 33.06078 | -116.41171 | 15317 ft | 325 kts | 212° |
| 2026-04-23 17:25 | 33.04056 | -116.42353 | 14927 ft | 323 kts | 212° |
| 2026-04-23 17:26 | 33.00119 | -116.44860 | 14134 ft | 315 kts | 223° |
| 2026-04-23 17:26 | 32.96818 | -116.48178 | 13380 ft | 306 kts | 225° |
| 2026-04-23 17:27 | 32.93617 | -116.51406 | 12803 ft | 298 kts | 225° |
| 2026-04-23 17:27 | 32.92036 | -116.53003 | 12347 ft | 296 kts | 225° |
| 2026-04-23 17:27 | 32.90492 | -116.54559 | 11894 ft | 286 kts | 225° |
| 2026-04-23 17:27 | 32.88993 | -116.56065 | 11454 ft | 278 kts | 225° |
| 2026-04-23 17:28 | 32.87525 | -116.57539 | 11004 ft | 273 kts | 225° |
| 2026-04-23 17:28 | 32.86078 | -116.58997 | 10584 ft | 272 kts | 224° |
| 2026-04-23 17:28 | 32.84662 | -116.60428 | 10168 ft | 270 kts | 224° |
| 2026-04-23 17:28 | 32.83227 | -116.61876 | 9726 ft | 270 kts | 224° |
| 2026-04-23 17:29 | 32.81798 | -116.63318 | 9266 ft | 269 kts | 223° |
| 2026-04-23 17:29 | 32.80372 | -116.64752 | 9069 ft | 268 kts | 223° |
| 2026-04-23 17:29 | 32.77711 | -116.67511 | 9072 ft | 237 kts | 231° |
| 2026-04-23 17:30 | 32.77031 | -116.68547 | 9061 ft | 233 kts | 240° |
| 2026-04-23 17:30 | 32.75200 | -116.72383 | 8239 ft | 230 kts | 243° |
| 2026-04-23 17:30 | 32.74429 | -116.74011 | 8042 ft | 222 kts | 243° |
| 2026-04-23 17:31 | 32.73668 | -116.75618 | 7587 ft | 227 kts | 243° |
| 2026-04-23 17:31 | 32.72889 | -116.77267 | 7197 ft | 231 kts | 243° |
| 2026-04-23 17:31 | 32.72102 | -116.78928 | 6941 ft | 230 kts | 243° |
| 2026-04-23 17:31 | 32.71317 | -116.80584 | 6666 ft | 230 kts | 243° |
| 2026-04-23 17:32 | 32.70595 | -116.82250 | 6395 ft | 229 kts | 252° |
| 2026-04-23 17:32 | 32.70050 | -116.84025 | 6092 ft | 229 kts | 252° |
| 2026-04-23 17:32 | 32.69500 | -116.85804 | 6017 ft | 230 kts | 251° |
| 2026-04-23 17:32 | 32.68943 | -116.87592 | 6023 ft | 231 kts | 251° |
| 2026-04-23 17:33 | 32.68404 | -116.89350 | 5948 ft | 223 kts | 252° |
| 2026-04-23 17:33 | 32.67887 | -116.91092 | 5613 ft | 226 kts | 252° |
| 2026-04-23 17:33 | 32.67424 | -116.92889 | 5215 ft | 230 kts | 263° |
| 2026-04-23 17:33 | 32.67459 | -116.94792 | 4764 ft | 233 kts | 284° |
| 2026-04-23 17:34 | 32.67908 | -116.96627 | 4297 ft | 230 kts | 288° |
| 2026-04-23 17:34 | 32.68354 | -116.98421 | 3857 ft | 228 kts | 288° |
| 2026-04-23 17:34 | 32.69225 | -117.01986 | 3124 ft | 219 kts | 288° |
| 2026-04-23 17:35 | 32.69639 | -117.03684 | 2959 ft | 208 kts | 288° |
| 2026-04-23 17:35 | 32.70362 | -117.06669 | 2636 ft | 168 kts | 287° |
| 2026-04-23 17:35 | 32.70678 | -117.07962 | 2346 ft | 157 kts | 287° |
| 2026-04-23 17:36 | 32.70971 | -117.09183 | 2011 ft | 153 kts | 286° |
| 2026-04-23 17:36 | 32.71261 | -117.10386 | 1701 ft | 149 kts | 286° |
| 2026-04-23 17:36 | 32.71541 | -117.11547 | 1422 ft | 144 kts | 285° |
| 2026-04-23 17:36 | 32.71819 | -117.12683 | 1154 ft | 143 kts | 286° |
| 2026-04-23 17:37 | 32.72106 | -117.13820 | 912 ft | 143 kts | 286° |
| 2026-04-23 17:37 | 32.72387 | -117.14956 | 678 ft | 143 kts | 286° |
| 2026-04-23 17:37 | 32.72939 | -117.17238 | 210 ft | 143 kts | 286° |
| 2026-04-23 17:38 | 32.73210 | -117.18363 | 48 ft | 141 kts | 286° |
| 2026-04-23 17:38 | 32.73448 | -117.19349 | 25 ft | 78 kts | 285° |
| 2026-04-23 17:38 | 32.73538 | -117.19744 | 26 ft | 32 kts | 271° |
| 2026-04-23 17:38 | 32.73491 | -117.19903 | 23 ft | 11 kts | 252° |
| 2026-04-23 17:39 | 32.73480 | -117.19934 | 23 ft | 0 kts | 237° |
| 2026-04-23 17:39 | 32.73493 | -117.19968 | 25 ft | 11 kts | 290° |
| 2026-04-23 17:39 | 32.73523 | -117.20082 | 24 ft | 16 kts | 287° |
| 2026-04-23 17:40 | 32.73543 | -117.20210 | 23 ft | 15 kts | 252° |
| 2026-04-23 17:40 | 32.73462 | -117.20257 | 23 ft | 10 kts | 193° |
| 2026-04-23 17:40 | 32.73407 | -117.20273 | 23 ft | 7 kts | 195° |
| 2026-04-23 17:40 | 32.73362 | -117.20278 | 23 ft | 6 kts | 174° |
| 2026-04-23 17:41 | 32.73335 | -117.20254 | 23 ft | 4 kts | 116° |
| 2026-04-23 17:41 | 32.73336 | -117.20199 | 23 ft | 1 kts | 85° |
| 2026-04-23 17:41 | 32.73337 | -117.20192 | 23 ft | 0 kts | 85° |
| 2026-04-23 17:42 | 32.73337 | -117.20190 | 23 ft | 0 kts | 84° |